Time;durP1;ratioP1;P1;durP2;ratioP2;P2;SDS_P1;SDS_P2;PMS_P1;PMS_P2;Temp;Humidity;BMP_temperature;BMP_pressure;BME280_temperature;BME280_humidity;BME280_pressure;Samples;Min_cycle;Max_cycle;Signal;HPM_P1;HPM_P2
2023/10/26 00:00:42;;;;;;;28.40;21.60;;;;;;;;;;5052121;28;20468;-52
2023/10/26 00:03:09;;;;;;;28.70;21.30;;;;;;;;;;5052120;28;20029;-46
2023/10/26 00:05:35;;;;;;;29.45;21.77;;;;;;;;;;5051867;28;20025;-48
2023/10/26 00:08:01;;;;;;;27.05;19.17;;;;;;;;;;5051078;28;20021;-47
2023/10/26 00:10:27;;;;;;;26.27;20.05;;;;;;;;;;5051923;28;20021;-54
2023/10/26 00:12:53;;;;;;;27.55;20.98;;;;;;;;;;5052232;28;20467;-50
2023/10/26 00:15:19;;;;;;;25.70;19.75;;;;;;;;;;5051005;28;20082;-50
2023/10/26 00:17:45;;;;;;;25.77;19.75;;;;;;;;;;5052218;28;20049;-48
2023/10/26 00:20:11;;;;;;;26.08;19.63;;;;;;;;;;5051503;28;20064;-50
2023/10/26 00:22:37;;;;;;;26.15;19.17;;;;;;;;;;5051627;28;20103;-51
2023/10/26 00:25:03;;;;;;;24.55;18.58;;;;;;;;;;5051714;28;20044;-50
2023/10/26 00:27:29;;;;;;;25.67;18.73;;;;;;;;;;5051694;28;20101;-45
2023/10/26 00:29:55;;;;;;;24.27;18.55;;;;;;;;;;5051429;28;20108;-50
2023/10/26 00:32:21;;;;;;;26.17;19.60;;;;;;;;;;5050931;28;20089;-52
2023/10/26 00:34:47;;;;;;;24.65;19.55;;;;;;;;;;5051404;28;20048;-48
2023/10/26 00:37:13;;;;;;;24.98;18.92;;;;;;;;;;5051374;28;20052;-49
2023/10/26 00:39:39;;;;;;;25.05;18.27;;;;;;;;;;5050997;28;20056;-51
2023/10/26 00:42:05;;;;;;;24.30;17.88;;;;;;;;;;5051233;28;20025;-47
2023/10/26 00:44:31;;;;;;;24.88;18.58;;;;;;;;;;5051117;28;20033;-47
2023/10/26 00:46:57;;;;;;;24.67;18.13;;;;;;;;;;5051155;28;20360;-46
2023/10/26 00:49:23;;;;;;;24.23;18.17;;;;;;;;;;5051100;28;20528;-45
2023/10/26 00:51:55;;;;;;;24.38;18.13;;;;;;;;;;5051100;28;20036;-47
2023/10/26 00:54:22;;;;;;;26.10;19.08;;;;;;;;;;5051381;28;20025;-51
2023/10/26 00:56:50;;;;;;;27.23;19.00;;;;;;;;;;5051119;28;20033;-52
2023/10/26 00:59:17;;;;;;;23.92;18.02;;;;;;;;;;5049767;28;20447;-48
2023/10/26 01:01:45;;;;;;;25.58;18.58;;;;;;;;;;5050440;28;20106;-51
2023/10/26 01:04:14;;;;;;;24.13;17.92;;;;;;;;;;5050132;28;20059;-48
2023/10/26 01:06:40;;;;;;;25.42;18.70;;;;;;;;;;5051064;28;20055;-45
2023/10/26 01:09:08;;;;;;;25.58;18.70;;;;;;;;;;5051053;28;20032;-49
2023/10/26 01:11:34;;;;;;;24.67;18.58;;;;;;;;;;5051061;28;20071;-45
2023/10/26 01:14:00;;;;;;;25.00;19.08;;;;;;;;;;5050774;28;20024;-44
2023/10/26 01:16:26;;;;;;;23.90;18.25;;;;;;;;;;5049643;28;20094;-46
2023/10/26 01:18:52;;;;;;;24.30;17.92;;;;;;;;;;5049509;28;20108;-46
2023/10/26 01:21:18;;;;;;;25.10;18.88;;;;;;;;;;5050664;28;20513;-49
2023/10/26 01:23:44;;;;;;;23.88;18.60;;;;;;;;;;5050579;28;20092;-46
2023/10/26 01:26:10;;;;;;;26.55;18.60;;;;;;;;;;5049653;28;20449;-48
2023/10/26 01:28:36;;;;;;;23.92;18.27;;;;;;;;;;5049941;28;20100;-45
2023/10/26 01:31:02;;;;;;;23.92;19.25;;;;;;;;;;5050520;28;20017;-47
2023/10/26 01:33:28;;;;;;;23.10;17.33;;;;;;;;;;5050336;28;20021;-47
2023/10/26 01:35:54;;;;;;;24.80;19.10;;;;;;;;;;5050479;28;20033;-51
2023/10/26 01:38:20;;;;;;;25.10;18.95;;;;;;;;;;5050446;28;20029;-53
2023/10/26 01:40:46;;;;;;;24.38;18.13;;;;;;;;;;5050421;28;20033;-51
2023/10/26 01:43:12;;;;;;;23.33;17.65;;;;;;;;;;5050139;28;20037;-48
2023/10/26 01:45:38;;;;;;;23.63;18.52;;;;;;;;;;5049495;28;20551;-50
2023/10/26 01:48:04;;;;;;;22.95;18.33;;;;;;;;;;5046849;28;20048;-49
2023/10/26 01:50:30;;;;;;;23.35;18.67;;;;;;;;;;5049756;28;20019;-49
2023/10/26 01:52:57;;;;;;;23.08;18.17;;;;;;;;;;5050138;28;20021;-48
2023/10/26 01:55:23;;;;;;;21.90;16.85;;;;;;;;;;5050229;28;20025;-49
2023/10/26 01:57:49;;;;;;;22.35;17.70;;;;;;;;;;5049477;28;20029;-52
2023/10/26 02:00:15;;;;;;;21.45;17.17;;;;;;;;;;5044864;28;20104;-51
2023/10/26 02:02:41;;;;;;;24.17;17.90;;;;;;;;;;5049918;28;20021;-48
2023/10/26 02:05:07;;;;;;;24.15;18.05;;;;;;;;;;5050118;28;20020;-50
2023/10/26 02:07:33;;;;;;;22.55;17.55;;;;;;;;;;5049890;28;20032;-50
2023/10/26 02:10:00;;;;;;;22.42;17.05;;;;;;;;;;5049695;28;20021;-54
2023/10/26 02:12:26;;;;;;;22.17;17.65;;;;;;;;;;5049525;28;20021;-50
2023/10/26 02:14:52;;;;;;;22.33;17.45;;;;;;;;;;5048990;28;20055;-48
2023/10/26 02:17:18;;;;;;;22.23;17.55;;;;;;;;;;5049906;28;20114;-49
2023/10/26 02:19:44;;;;;;;22.77;17.33;;;;;;;;;;5049567;28;20025;-47
2023/10/26 02:22:10;;;;;;;23.73;18.50;;;;;;;;;;5049758;28;20071;-45
2023/10/26 02:24:36;;;;;;;22.35;17.55;;;;;;;;;;5049590;28;20025;-45
2023/10/26 02:27:02;;;;;;;22.30;17.67;;;;;;;;;;5049773;28;20032;-47
2023/10/26 02:29:28;;;;;;;24.30;18.35;;;;;;;;;;5049514;28;20044;-48
2023/10/26 02:31:54;;;;;;;23.38;18.40;;;;;;;;;;5049794;28;20025;-48
2023/10/26 02:34:20;;;;;;;24.90;17.77;;;;;;;;;;5049614;28;20538;-47
2023/10/26 02:36:46;;;;;;;23.17;18.75;;;;;;;;;;5049529;28;20029;-46
2023/10/26 02:39:12;;;;;;;24.50;19.02;;;;;;;;;;5048985;28;20056;-51
2023/10/26 02:41:37;;;;;;;21.85;17.98;;;;;;;;;;5049900;28;20021;-46
2023/10/26 02:44:04;;;;;;;23.42;18.25;;;;;;;;;;5048426;28;20025;-46
2023/10/26 02:46:29;;;;;;;25.73;18.30;;;;;;;;;;5049756;28;20082;-45
2023/10/26 02:48:57;;;;;;;23.63;18.40;;;;;;;;;;5049612;28;20033;-46
2023/10/26 02:51:23;;;;;;;23.55;18.88;;;;;;;;;;5049783;28;20021;-45
2023/10/26 02:53:49;;;;;;;23.40;17.70;;;;;;;;;;5049225;28;20336;-47
2023/10/26 02:56:15;;;;;;;23.58;18.83;;;;;;;;;;5049805;28;20029;-48
2023/10/26 02:58:41;;;;;;;24.38;19.55;;;;;;;;;;5053457;28;20028;-51
2023/10/26 03:01:07;;;;;;;23.02;18.27;;;;;;;;;;5053265;28;20021;-50
2023/10/26 03:03:33;;;;;;;23.02;17.92;;;;;;;;;;5053301;28;20024;-50
2023/10/26 03:05:59;;;;;;;24.90;19.13;;;;;;;;;;5053431;28;20056;-47
2023/10/26 03:08:25;;;;;;;23.20;19.00;;;;;;;;;;5051781;28;20039;-51
2023/10/26 03:10:51;;;;;;;22.98;18.95;;;;;;;;;;5052770;28;20031;-51
2023/10/26 03:13:17;;;;;;;23.65;19.00;;;;;;;;;;5053047;28;20025;-50
2023/10/26 03:15:43;;;;;;;25.17;19.92;;;;;;;;;;5053052;28;20073;-47
2023/10/26 03:18:09;;;;;;;22.77;19.60;;;;;;;;;;5052874;28;20025;-46
2023/10/26 03:20:35;;;;;;;27.52;19.90;;;;;;;;;;5052470;28;20556;-49
2023/10/26 03:23:01;;;;;;;22.98;19.88;;;;;;;;;;5052913;28;20051;-47
2023/10/26 03:25:27;;;;;;;24.88;21.13;;;;;;;;;;5052302;28;20017;-48
2023/10/26 03:27:53;;;;;;;23.73;20.40;;;;;;;;;;5052382;28;20082;-47
2023/10/26 03:30:20;;;;;;;22.67;19.52;;;;;;;;;;5052414;28;20454;-45
2023/10/26 03:32:46;;;;;;;25.35;21.50;;;;;;;;;;5041859;28;20034;-51
2023/10/26 03:35:12;;;;;;;25.35;20.48;;;;;;;;;;5032800;28;20064;-51
2023/10/26 03:37:38;;;;;;;23.35;20.73;;;;;;;;;;5032451;28;20147;-46
2023/10/26 03:40:05;;;;;;;24.10;21.10;;;;;;;;;;5032326;28;20482;-46
2023/10/26 03:42:31;;;;;;;25.92;21.48;;;;;;;;;;5039917;28;20398;-48
2023/10/26 03:44:57;;;;;;;24.63;20.25;;;;;;;;;;5052387;28;20021;-51
2023/10/26 03:47:23;;;;;;;25.05;22.23;;;;;;;;;;5052381;28;20014;-47
2023/10/26 03:49:52;;;;;;;25.85;21.85;;;;;;;;;;5052087;28;20035;-47
2023/10/26 03:52:18;;;;;;;26.90;21.70;;;;;;;;;;5052258;28;20040;-48
2023/10/26 03:54:44;;;;;;;26.30;22.17;;;;;;;;;;5052274;28;20037;-51
2023/10/26 03:57:10;;;;;;;27.42;21.70;;;;;;;;;;5052218;28;20080;-46
2023/10/26 03:59:36;;;;;;;27.77;22.60;;;;;;;;;;5051563;28;20032;-47
2023/10/26 04:02:02;;;;;;;26.05;22.10;;;;;;;;;;5052099;28;20025;-51
2023/10/26 04:04:28;;;;;;;24.75;21.45;;;;;;;;;;5052224;28;20017;-48
2023/10/26 04:06:54;;;;;;;26.40;22.75;;;;;;;;;;5052166;28;20434;-46
2023/10/26 04:09:20;;;;;;;28.30;23.60;;;;;;;;;;5051183;28;20033;-46
2023/10/26 04:11:46;;;;;;;26.40;22.17;;;;;;;;;;5051900;28;20032;-48
2023/10/26 04:14:12;;;;;;;26.30;22.85;;;;;;;;;;5050458;28;20021;-45
2023/10/26 04:16:38;;;;;;;25.67;22.13;;;;;;;;;;5050902;28;20021;-46
2023/10/26 04:19:04;;;;;;;28.85;23.40;;;;;;;;;;5051536;28;20020;-50
2023/10/26 04:21:30;;;;;;;26.73;23.77;;;;;;;;;;5051661;28;20021;-46
2023/10/26 04:23:57;;;;;;;27.42;23.38;;;;;;;;;;5051915;28;20557;-49
2023/10/26 04:26:23;;;;;;;26.27;23.23;;;;;;;;;;5051567;28;20039;-47
2023/10/26 04:28:49;;;;;;;28.20;24.30;;;;;;;;;;5048358;28;20010;-48
2023/10/26 04:31:15;;;;;;;27.25;23.80;;;;;;;;;;5037789;28;20040;-50
2023/10/26 04:33:41;;;;;;;27.17;24.27;;;;;;;;;;5051695;28;20075;-46
2023/10/26 04:36:07;;;;;;;25.45;22.67;;;;;;;;;;5051754;28;20021;-46
2023/10/26 04:38:34;;;;;;;27.58;23.00;;;;;;;;;;5051569;28;20082;-50
2023/10/26 04:41:00;;;;;;;26.63;23.42;;;;;;;;;;5050866;28;20036;-50
2023/10/26 04:43:26;;;;;;;28.75;25.20;;;;;;;;;;5048423;28;20029;-46
2023/10/26 04:45:52;;;;;;;26.70;22.88;;;;;;;;;;5042977;28;20017;-50
2023/10/26 04:48:18;;;;;;;25.70;22.88;;;;;;;;;;5050849;28;20391;-50
2023/10/26 04:50:46;;;;;;;28.60;25.42;;;;;;;;;;5050891;28;20017;-52
2023/10/26 04:53:12;;;;;;;25.75;22.85;;;;;;;;;;5051380;28;20089;-54
2023/10/26 04:55:38;;;;;;;29.50;25.80;;;;;;;;;;5051180;28;20440;-52
2023/10/26 04:58:04;;;;;;;28.45;25.33;;;;;;;;;;5051185;28;20032;-50
2023/10/26 05:00:32;;;;;;;29.13;24.90;;;;;;;;;;5033837;28;20108;-46
2023/10/26 05:02:58;;;;;;;30.30;24.67;;;;;;;;;;5031440;28;20025;-48
2023/10/26 05:05:24;;;;;;;27.83;24.83;;;;;;;;;;5045566;28;20087;-49
2023/10/26 05:07:50;;;;;;;29.92;26.08;;;;;;;;;;5051134;28;20036;-48
2023/10/26 05:10:16;;;;;;;29.35;24.85;;;;;;;;;;5050534;28;20415;-48
2023/10/26 05:12:42;;;;;;;29.70;26.50;;;;;;;;;;5049575;28;20025;-47
2023/10/26 05:15:08;;;;;;;29.20;25.83;;;;;;;;;;5050321;28;20021;-49
2023/10/26 05:17:35;;;;;;;30.38;26.58;;;;;;;;;;5050372;28;20078;-50
2023/10/26 05:20:01;;;;;;;29.58;25.25;;;;;;;;;;5048418;28;20447;-47
2023/10/26 05:22:27;;;;;;;31.13;26.08;;;;;;;;;;5049928;28;20028;-49
2023/10/26 05:24:53;;;;;;;32.33;25.55;;;;;;;;;;5050316;28;20395;-51
2023/10/26 05:27:19;;;;;;;30.90;26.08;;;;;;;;;;5050221;28;20028;-52
2023/10/26 05:29:45;;;;;;;31.13;25.88;;;;;;;;;;5049814;28;20508;-47
2023/10/26 05:32:11;;;;;;;32.03;25.55;;;;;;;;;;5050217;28;20112;-51
2023/10/26 05:34:37;;;;;;;32.00;25.63;;;;;;;;;;5049909;28;20082;-47
2023/10/26 05:37:03;;;;;;;33.50;26.10;;;;;;;;;;5048461;28;20029;-48
2023/10/26 05:39:32;;;;;;;33.33;26.27;;;;;;;;;;5049050;28;20094;-50
2023/10/26 05:41:58;;;;;;;29.35;23.35;;;;;;;;;;5050152;28;20029;-50
2023/10/26 05:44:25;;;;;;;29.55;25.50;;;;;;;;;;5049643;28;20021;-55
2023/10/26 05:46:51;;;;;;;28.90;24.65;;;;;;;;;;5048780;28;20029;-51
2023/10/26 05:49:17;;;;;;;30.45;23.60;;;;;;;;;;5049911;28;20017;-47
2023/10/26 05:51:43;;;;;;;31.40;25.40;;;;;;;;;;5050319;28;20071;-48
2023/10/26 05:54:10;;;;;;;30.88;23.92;;;;;;;;;;5049277;28;20025;-50
2023/10/26 05:56:36;;;;;;;29.90;23.25;;;;;;;;;;5048041;28;20025;-48
2023/10/26 05:59:02;;;;;;;31.55;24.23;;;;;;;;;;5049486;28;20502;-48
2023/10/26 06:01:28;;;;;;;30.65;23.45;;;;;;;;;;5048041;28;20560;-49
2023/10/26 06:03:55;;;;;;;30.88;23.98;;;;;;;;;;5049857;28;20080;-50
2023/10/26 06:06:21;;;;;;;34.47;25.38;;;;;;;;;;5049610;28;20021;-46
2023/10/26 06:08:47;;;;;;;30.80;23.60;;;;;;;;;;5049970;28;20033;-47
2023/10/26 06:11:13;;;;;;;29.70;23.67;;;;;;;;;;5049395;28;20055;-50
2023/10/26 06:13:39;;;;;;;32.08;23.20;;;;;;;;;;5039750;28;20376;-50
2023/10/26 06:16:05;;;;;;;31.77;23.95;;;;;;;;;;5030837;28;20032;-47
2023/10/26 06:18:32;;;;;;;30.42;24.00;;;;;;;;;;5036629;28;20045;-49
2023/10/26 06:21:02;;;;;;;36.47;25.67;;;;;;;;;;5049216;28;20021;-50
2023/10/26 06:23:28;;;;;;;31.02;23.77;;;;;;;;;;5049708;28;20446;-50
2023/10/26 06:26:01;;;;;;;35.13;23.95;;;;;;;;;;5048623;28;20078;-49
2023/10/26 06:28:27;;;;;;;31.38;24.17;;;;;;;;;;5049094;28;20053;-48
2023/10/26 06:30:53;;;;;;;30.90;24.05;;;;;;;;;;5050231;28;20062;-50
2023/10/26 06:33:19;;;;;;;29.70;23.42;;;;;;;;;;5053361;28;20017;-48
2023/10/26 06:35:45;;;;;;;31.83;24.17;;;;;;;;;;5053514;28;20056;-46
2023/10/26 06:38:12;;;;;;;30.25;24.00;;;;;;;;;;5053243;28;20039;-50
2023/10/26 06:40:38;;;;;;;31.90;25.52;;;;;;;;;;5052916;28;20546;-52
2023/10/26 06:43:04;;;;;;;29.80;23.75;;;;;;;;;;5052478;28;20047;-47
2023/10/26 06:45:30;;;;;;;33.45;23.67;;;;;;;;;;5052257;28;20033;-50
2023/10/26 06:47:56;;;;;;;31.52;23.63;;;;;;;;;;5053590;28;20027;-49
2023/10/26 06:50:23;;;;;;;34.05;24.38;;;;;;;;;;5053113;28;20041;-50
2023/10/26 06:52:49;;;;;;;31.20;23.73;;;;;;;;;;5053087;28;20512;-47
2023/10/26 06:55:16;;;;;;;33.00;23.48;;;;;;;;;;5053380;28;20035;-49
2023/10/26 06:57:42;;;;;;;30.50;23.35;;;;;;;;;;5052869;28;20166;-52
2023/10/26 07:00:09;;;;;;;39.97;24.10;;;;;;;;;;5051837;28;20033;-49
2023/10/26 07:02:36;;;;;;;32.03;24.42;;;;;;;;;;5051894;28;20486;-52
2023/10/26 07:05:02;;;;;;;30.75;22.88;;;;;;;;;;5051834;28;20017;-46
2023/10/26 07:07:30;;;;;;;30.42;23.60;;;;;;;;;;5052582;28;20478;-49
2023/10/26 07:09:56;;;;;;;32.92;25.92;;;;;;;;;;5052759;28;20402;-47
2023/10/26 07:12:22;;;;;;;31.70;24.10;;;;;;;;;;5053117;28;20112;-46
2023/10/26 07:14:53;;;;;;;29.83;23.58;;;;;;;;;;5053055;28;20044;-47
2023/10/26 07:17:20;;;;;;;30.58;23.40;;;;;;;;;;5052652;28;20025;-48
2023/10/26 07:19:46;;;;;;;29.52;22.20;;;;;;;;;;5052912;28;20597;-47
2023/10/26 07:22:12;;;;;;;31.98;24.15;;;;;;;;;;5051853;28;20037;-53
2023/10/26 07:24:37;;;;;;;31.30;24.13;;;;;;;;;;5052780;28;20099;-51
2023/10/26 07:27:04;;;;;;;29.23;23.02;;;;;;;;;;5053304;28;20024;-48
2023/10/26 07:29:30;;;;;;;29.80;23.42;;;;;;;;;;5052517;28;20017;-46
2023/10/26 07:31:56;;;;;;;29.83;22.48;;;;;;;;;;5052708;28;20086;-49
2023/10/26 07:34:22;;;;;;;29.58;22.15;;;;;;;;;;5051197;28;20024;-53
2023/10/26 07:36:49;;;;;;;30.98;22.55;;;;;;;;;;5053413;28;20025;-50
2023/10/26 07:39:15;;;;;;;29.65;22.70;;;;;;;;;;5052471;28;20013;-50
2023/10/26 07:41:41;;;;;;;32.97;23.30;;;;;;;;;;5052183;28;20094;-49
2023/10/26 07:44:07;;;;;;;30.08;23.10;;;;;;;;;;5051687;28;20021;-49
2023/10/26 07:46:33;;;;;;;29.05;22.92;;;;;;;;;;5052294;28;20560;-52
2023/10/26 07:48:59;;;;;;;27.73;21.73;;;;;;;;;;5054899;28;20036;-52
2023/10/26 07:51:25;;;;;;;30.15;23.15;;;;;;;;;;5054456;28;20640;-50
2023/10/26 07:53:51;;;;;;;31.38;21.92;;;;;;;;;;5055137;28;20020;-52
2023/10/26 07:56:17;;;;;;;29.42;21.35;;;;;;;;;;5046586;28;20032;-47
2023/10/26 07:58:43;;;;;;;30.48;22.23;;;;;;;;;;5052477;28;20482;-49
2023/10/26 08:01:09;;;;;;;31.00;22.80;;;;;;;;;;5052481;28;20032;-48
2023/10/26 08:03:35;;;;;;;27.63;21.27;;;;;;;;;;5043379;28;20026;-48
2023/10/26 08:06:04;;;;;;;29.83;23.45;;;;;;;;;;5036605;28;20106;-47
2023/10/26 08:08:30;;;;;;;29.33;22.75;;;;;;;;;;5039156;28;20057;-48
2023/10/26 08:10:57;;;;;;;32.58;23.45;;;;;;;;;;5048225;28;20082;-47
2023/10/26 08:13:23;;;;;;;28.23;22.27;;;;;;;;;;5049246;28;20104;-52
2023/10/26 08:15:49;;;;;;;28.55;22.15;;;;;;;;;;5053992;28;20079;-53
2023/10/26 08:18:15;;;;;;;29.75;22.10;;;;;;;;;;5053670;28;20075;-49
2023/10/26 08:20:41;;;;;;;29.02;22.13;;;;;;;;;;5052754;28;20097;-48
2023/10/26 08:23:07;;;;;;;31.30;24.33;;;;;;;;;;5052172;28;20475;-53
2023/10/26 08:25:36;;;;;;;29.73;22.58;;;;;;;;;;5053871;28;20025;-49
2023/10/26 08:28:02;;;;;;;33.28;23.50;;;;;;;;;;5051629;28;20009;-51
2023/10/26 08:30:28;;;;;;;29.65;22.45;;;;;;;;;;5049883;28;20044;-50
2023/10/26 08:32:56;;;;;;;32.33;23.95;;;;;;;;;;5051374;28;20045;-51
2023/10/26 08:35:22;;;;;;;31.30;23.15;;;;;;;;;;5051696;28;20439;-46
2023/10/26 08:37:49;;;;;;;32.50;23.58;;;;;;;;;;5051296;28;20115;-48
2023/10/26 08:40:15;;;;;;;31.77;22.88;;;;;;;;;;5050334;28;20147;-49
2023/10/26 08:42:43;;;;;;;30.75;23.20;;;;;;;;;;5050358;28;20029;-49
2023/10/26 08:45:14;;;;;;;33.20;24.77;;;;;;;;;;5052272;28;20025;-48
2023/10/26 08:47:41;;;;;;;31.05;24.05;;;;;;;;;;5051775;28;20060;-49
2023/10/26 08:50:08;;;;;;;29.50;21.95;;;;;;;;;;5051964;28;20025;-55
2023/10/26 08:52:34;;;;;;;34.63;24.52;;;;;;;;;;5051741;28;20040;-47
2023/10/26 08:55:00;;;;;;;31.95;22.85;;;;;;;;;;5050497;28;20017;-47
2023/10/26 08:57:26;;;;;;;30.88;23.08;;;;;;;;;;5048920;28;20049;-49
2023/10/26 08:59:52;;;;;;;29.27;22.52;;;;;;;;;;5040872;28;20483;-50
2023/10/26 09:02:18;;;;;;;29.48;21.45;;;;;;;;;;5034746;28;20634;-53
2023/10/26 09:05:03;;;;;;;31.10;22.83;;;;;;;;;;5033538;28;20491;-54
2023/10/26 09:07:29;;;;;;;30.23;22.73;;;;;;;;;;5044316;28;20029;-54
2023/10/26 09:09:55;;;;;;;31.98;23.40;;;;;;;;;;5050342;28;20020;-54
2023/10/26 09:12:21;;;;;;;31.92;23.63;;;;;;;;;;5049948;28;20033;-54
2023/10/26 09:15:00;;;;;;;30.75;21.70;;;;;;;;;;5046912;28;20037;-54
2023/10/26 09:17:27;;;;;;;28.73;21.33;;;;;;;;;;5049175;28;20082;-48
2023/10/26 09:19:53;;;;;;;26.52;20.98;;;;;;;;;;5049910;28;20498;-50
2023/10/26 09:22:19;;;;;;;29.10;21.17;;;;;;;;;;5050537;28;20123;-51
2023/10/26 09:24:45;;;;;;;29.65;21.75;;;;;;;;;;5050058;28;20128;-54
2023/10/26 09:27:21;;;;;;;30.88;21.58;;;;;;;;;;5050443;28;20020;-49
2023/10/26 09:29:47;;;;;;;33.78;23.52;;;;;;;;;;5049787;28;20044;-54
2023/10/26 09:32:13;;;;;;;29.73;22.05;;;;;;;;;;5050324;28;20017;-52
2023/10/26 09:34:43;;;;;;;28.52;21.92;;;;;;;;;;5041151;28;20037;-51
2023/10/26 09:37:10;;;;;;;29.90;22.27;;;;;;;;;;5038793;28;20021;-53
2023/10/26 09:39:37;;;;;;;30.08;22.27;;;;;;;;;;5047266;28;20529;-55
2023/10/26 09:42:05;;;;;;;28.05;21.40;;;;;;;;;;5049954;28;20033;-51
2023/10/26 09:44:31;;;;;;;28.73;21.02;;;;;;;;;;5050035;28;20540;-52
2023/10/26 09:46:58;;;;;;;28.40;22.02;;;;;;;;;;5048700;28;20483;-56
2023/10/26 09:49:24;;;;;;;25.70;19.42;;;;;;;;;;5049617;28;20017;-54
2023/10/26 09:51:51;;;;;;;24.40;18.63;;;;;;;;;;5049796;28;20032;-52
2023/10/26 09:54:18;;;;;;;28.30;19.27;;;;;;;;;;5044615;28;20072;-53
2023/10/26 09:56:47;;;;;;;27.07;19.00;;;;;;;;;;5048031;28;20025;-56
2023/10/26 09:59:13;;;;;;;28.55;21.20;;;;;;;;;;5049179;28;20363;-55
2023/10/26 10:01:42;;;;;;;24.17;18.02;;;;;;;;;;5049898;28;20032;-52
2023/10/26 10:04:08;;;;;;;;;;;;;;;;;;5050393;28;20276;-55
2023/10/26 10:06:44;;;;;;;24.85;19.15;;;;;;;;;;5049684;28;19911;-52
2023/10/26 10:09:13;;;;;;;24.02;18.58;;;;;;;;;;5048591;28;20040;-48
2023/10/26 10:11:40;;;;;;;27.38;19.05;;;;;;;;;;5053768;28;20033;-51
2023/10/26 10:14:06;;;;;;;24.42;18.88;;;;;;;;;;5052522;28;20033;-50
2023/10/26 10:16:35;;;;;;;26.42;19.17;;;;;;;;;;5049620;28;20091;-49
2023/10/26 10:19:20;;;;;;;25.13;18.40;;;;;;;;;;5049356;28;20017;-48
2023/10/26 10:21:48;;;;;;;24.67;18.73;;;;;;;;;;5049547;28;20052;-53
2023/10/26 10:24:32;;;;;;;23.58;19.13;;;;;;;;;;5049171;28;20025;-50
2023/10/26 10:27:11;;;;;;;25.42;19.60;;;;;;;;;;5048255;28;20056;-56
2023/10/26 10:29:37;;;;;;;24.00;18.65;;;;;;;;;;5048276;28;20028;-51
2023/10/26 10:32:03;;;;;;;23.23;19.45;;;;;;;;;;5050018;28;20518;-55
2023/10/26 10:34:30;;;;;;;23.70;19.70;;;;;;;;;;5049914;28;20091;-58
2023/10/26 10:37:22;;;;;;;23.80;18.55;;;;;;;;;;5049475;28;20041;-52
2023/10/26 10:40:27;;;;;;;24.15;19.20;;;;;;;;;;5048999;28;20384;-54
2023/10/26 10:42:53;;;;;;;24.58;19.65;;;;;;;;;;5006854;28;20030;-51
2023/10/26 10:45:19;;;;;;;23.55;19.48;;;;;;;;;;4990932;28;20032;-52
2023/10/26 10:47:49;;;;;;;23.33;18.92;;;;;;;;;;5026991;28;20033;-56
2023/10/26 10:50:22;;;;;;;23.05;18.98;;;;;;;;;;5050009;28;20402;-53
2023/10/26 10:52:53;;;;;;;24.33;18.13;;;;;;;;;;5049164;28;20025;-51
2023/10/26 10:55:26;;;;;;;23.40;18.90;;;;;;;;;;5049047;28;20148;-56
2023/10/26 10:57:53;;;;;;;22.13;17.65;;;;;;;;;;5048869;28;20025;-53
2023/10/26 11:00:20;;;;;;;25.95;18.42;;;;;;;;;;5047491;28;20029;-52
2023/10/26 11:02:49;;;;;;;22.45;17.50;;;;;;;;;;5039304;28;20554;-54
2023/10/26 11:05:18;;;;;;;23.92;17.85;;;;;;;;;;5052612;28;20025;-57
2023/10/26 11:07:44;;;;;;;21.67;17.15;;;;;;;;;;5075722;22;20049;-50
2023/10/26 11:10:11;;;;;;;23.23;17.40;;;;;;;;;;5066864;28;20032;-55
2023/10/26 11:12:37;;;;;;;23.73;17.52;;;;;;;;;;5067517;28;20024;-56
2023/10/26 11:15:04;;;;;;;24.08;18.35;;;;;;;;;;5062646;28;20028;-55
2023/10/26 11:17:31;;;;;;;22.60;16.83;;;;;;;;;;5067218;28;20401;-56
2023/10/26 11:19:57;;;;;;;24.90;18.40;;;;;;;;;;5069872;28;20055;-59
2023/10/26 11:22:23;;;;;;;23.88;17.80;;;;;;;;;;5071572;28;20033;-59
2023/10/26 11:24:49;;;;;;;24.83;18.33;;;;;;;;;;5068406;28;20047;-57
2023/10/26 11:27:19;;;;;;;23.05;17.50;;;;;;;;;;5071257;28;20027;-53
2023/10/26 11:29:59;;;;;;;23.58;17.08;;;;;;;;;;5071213;28;20028;-53
2023/10/26 11:32:25;;;;;;;23.77;15.95;;;;;;;;;;5071171;28;20335;-55
2023/10/26 11:35:03;;;;;;;24.85;17.63;;;;;;;;;;5069872;28;20020;-55
2023/10/26 11:37:30;;;;;;;24.13;16.20;;;;;;;;;;5070664;28;20047;-55
2023/10/26 11:39:56;;;;;;;22.90;17.17;;;;;;;;;;5070620;28;20035;-52
2023/10/26 11:42:42;;;;;;;25.15;16.95;;;;;;;;;;5066550;28;20032;-51
2023/10/26 11:45:08;;;;;;;21.67;16.58;;;;;;;;;;5068512;28;20040;-55
2023/10/26 11:47:50;;;;;;;23.08;16.83;;;;;;;;;;5070672;28;20016;-53
2023/10/26 11:50:22;;;;;;;25.95;17.45;;;;;;;;;;5063815;28;20684;-57
2023/10/26 11:52:48;;;;;;;23.20;15.70;;;;;;;;;;5069152;28;20088;-54
2023/10/26 11:55:14;;;;;;;21.80;15.20;;;;;;;;;;5066088;28;20077;-53
2023/10/26 11:57:41;;;;;;;23.85;16.10;;;;;;;;;;5070566;28;20082;-55
2023/10/26 12:00:08;;;;;;;22.30;16.15;;;;;;;;;;5070460;28;20044;-55
2023/10/26 12:02:34;;;;;;;23.25;16.25;;;;;;;;;;5070326;28;20081;-54
2023/10/26 12:05:00;;;;;;;22.98;15.25;;;;;;;;;;5070437;28;20066;-53
2023/10/26 12:07:26;;;;;;;23.98;15.52;;;;;;;;;;5069683;28;20017;-54
2023/10/26 12:09:53;;;;;;;23.67;15.60;;;;;;;;;;5069414;28;20031;-55
2023/10/26 12:12:19;;;;;;;21.38;14.52;;;;;;;;;;5070431;28;20082;-54
2023/10/26 12:14:47;;;;;;;24.65;16.85;;;;;;;;;;5070447;28;20033;-55
2023/10/26 12:17:13;;;;;;;23.40;16.10;;;;;;;;;;5070075;28;20505;-55
2023/10/26 12:19:39;;;;;;;26.40;15.93;;;;;;;;;;5069914;28;20259;-54
2023/10/26 12:22:05;;;;;;;22.38;14.38;;;;;;;;;;5070405;28;20122;-58
2023/10/26 12:24:32;;;;;;;22.95;14.55;;;;;;;;;;5063004;28;20056;-55
2023/10/26 12:26:58;;;;;;;21.20;13.73;;;;;;;;;;5071194;28;20044;-55
2023/10/26 12:29:24;;;;;;;20.40;13.20;;;;;;;;;;5062615;28;20021;-55
2023/10/26 12:31:50;;;;;;;24.10;14.65;;;;;;;;;;5069474;28;20089;-53
2023/10/26 12:34:19;;;;;;;22.40;15.23;;;;;;;;;;5070110;28;20040;-56
2023/10/26 12:36:45;;;;;;;24.00;14.13;;;;;;;;;;5069854;28;20021;-53
2023/10/26 12:39:11;;;;;;;20.50;14.18;;;;;;;;;;5069683;28;20083;-54
2023/10/26 12:41:37;;;;;;;19.42;13.52;;;;;;;;;;5064876;28;20021;-53
2023/10/26 12:44:03;;;;;;;22.55;14.13;;;;;;;;;;5067791;28;20020;-54
2023/10/26 12:46:29;;;;;;;20.38;13.65;;;;;;;;;;5064509;28;20024;-54
2023/10/26 12:48:55;;;;;;;21.20;14.02;;;;;;;;;;5060015;28;20016;-54
2023/10/26 12:51:21;;;;;;;19.33;12.63;;;;;;;;;;5064701;28;20020;-57
2023/10/26 12:53:47;;;;;;;19.45;12.85;;;;;;;;;;5069468;28;20370;-54
2023/10/26 12:56:13;;;;;;;19.75;12.25;;;;;;;;;;5068945;28;20035;-56
2023/10/26 12:58:39;;;;;;;18.73;11.93;;;;;;;;;;5068538;28;20036;-55
2023/10/26 13:01:05;;;;;;;17.92;11.70;;;;;;;;;;5068799;28;20025;-56
2023/10/26 13:03:31;;;;;;;18.92;12.15;;;;;;;;;;5053508;28;20074;-57
2023/10/26 13:05:57;;;;;;;19.52;14.05;;;;;;;;;;5049580;28;20021;-55
2023/10/26 13:08:23;;;;;;;19.77;13.77;;;;;;;;;;5049585;28;20075;-55
2023/10/26 13:10:50;;;;;;;21.27;13.43;;;;;;;;;;5049050;28;20021;-53
2023/10/26 13:13:16;;;;;;;18.92;14.02;;;;;;;;;;5054096;28;20033;-56
2023/10/26 13:15:42;;;;;;;20.42;13.82;;;;;;;;;;5055068;28;20037;-55
2023/10/26 13:18:08;;;;;;;20.20;14.07;;;;;;;;;;5058405;28;20069;-56
2023/10/26 13:20:34;;;;;;;19.20;13.07;;;;;;;;;;5063048;28;20386;-54
2023/10/26 13:23:00;;;;;;;18.30;12.65;;;;;;;;;;5058787;28;20025;-56
2023/10/26 13:25:26;;;;;;;18.17;12.60;;;;;;;;;;5058624;28;20471;-54
2023/10/26 13:27:53;;;;;;;19.83;13.18;;;;;;;;;;5059678;28;20013;-54
2023/10/26 13:30:19;;;;;;;19.50;12.95;;;;;;;;;;5056973;28;20098;-53
2023/10/26 13:32:46;;;;;;;18.75;13.20;;;;;;;;;;5056442;28;20039;-55
2023/10/26 13:35:12;;;;;;;19.58;14.00;;;;;;;;;;5068915;28;20043;-53
2023/10/26 13:37:38;;;;;;;20.30;12.95;;;;;;;;;;5067574;28;20494;-53
2023/10/26 13:40:05;;;;;;;20.08;13.73;;;;;;;;;;5067015;28;20025;-55
2023/10/26 13:42:31;;;;;;;21.48;13.90;;;;;;;;;;5066702;28;20035;-53
2023/10/26 13:44:57;;;;;;;19.88;13.35;;;;;;;;;;5064345;28;20108;-53
2023/10/26 13:47:23;;;;;;;19.23;12.80;;;;;;;;;;5068553;28;20025;-56
2023/10/26 13:49:49;;;;;;;18.88;13.15;;;;;;;;;;5067323;28;20032;-55
2023/10/26 13:52:15;;;;;;;19.48;13.23;;;;;;;;;;5068612;28;20031;-53
2023/10/26 13:54:41;;;;;;;19.02;13.40;;;;;;;;;;5050531;28;20087;-57
2023/10/26 13:57:08;;;;;;;20.15;14.05;;;;;;;;;;5047604;28;20483;-55
2023/10/26 13:59:37;;;;;;;21.35;14.60;;;;;;;;;;5048656;28;20064;-55
2023/10/26 14:02:04;;;;;;;23.65;13.85;;;;;;;;;;5048605;28;20021;-57
2023/10/26 14:04:32;;;;;;;21.23;13.70;;;;;;;;;;5048724;28;20475;-55
2023/10/26 14:06:58;;;;;;;23.40;15.15;;;;;;;;;;5065331;28;20356;-55
2023/10/26 14:09:24;;;;;;;24.05;14.95;;;;;;;;;;5068301;28;20028;-54
2023/10/26 14:11:50;;;;;;;24.13;16.23;;;;;;;;;;5068421;28;20025;-56
2023/10/26 14:14:16;;;;;;;25.67;16.95;;;;;;;;;;5068644;28;20032;-54
2023/10/26 14:16:42;;;;;;;23.83;15.77;;;;;;;;;;5068190;28;20401;-53